Terminal Aerodrome Forecast
Issued by NWS

Home | Current Version | Previous Version | Graphics & Text | Print | Product List | Glossary On
Versions: 1 2 3 4 5 6 7 8 9 10 11 12 13 14 15 16 17 18 19
736
FTUS43 KICT 200534
TAFSLN
TAF
KSLN 200534Z 2006/2106 11003KT 1SM BR OVC003
      TEMPO 2006/2008 1/2SM FG OVC002
     FM200800 10003KT 1/4SM FG OVC002
     FM201600 11004KT 1SM BR OVC003
     FM201800 14006KT 5SM BR OVC009
     FM202300 18007KT P6SM BKN012
     FM210300 19006KT P6SM BKN030=

USA.gov is the U.S. government's official web portal to all federal, state and local government web resources and services.